sensor_id;sensor_type;location;lat;lon;timestamp;P1;durP1;ratioP1;P2;durP2;ratioP2
9420;SDS011;4749;51.398;5.466;2022-08-01T00:00:42;7.07;;;4.72;;
9420;SDS011;4749;51.398;5.466;2022-08-01T00:03:09;6.82;;;4.78;;
9420;SDS011;4749;51.398;5.466;2022-08-01T00:05:36;5.55;;;4.85;;
9420;SDS011;4749;51.398;5.466;2022-08-01T00:08:03;6.05;;;4.90;;
9420;SDS011;4749;51.398;5.466;2022-08-01T00:10:31;6.95;;;4.80;;
9420;SDS011;4749;51.398;5.466;2022-08-01T00:13:01;5.63;;;5.07;;
9420;SDS011;4749;51.398;5.466;2022-08-01T00:15:28;8.50;;;5.60;;
9420;SDS011;4749;51.398;5.466;2022-08-01T00:17:55;6.18;;;5.47;;
9420;SDS011;4749;51.398;5.466;2022-08-01T00:20:23;8.45;;;5.60;;
9420;SDS011;4749;51.398;5.466;2022-08-01T00:22:50;8.43;;;5.15;;
9420;SDS011;4749;51.398;5.466;2022-08-01T00:25:17;7.28;;;5.28;;
9420;SDS011;4749;51.398;5.466;2022-08-01T00:27:45;6.20;;;5.40;;
9420;SDS011;4749;51.398;5.466;2022-08-01T00:30:13;7.72;;;5.28;;
9420;SDS011;4749;51.398;5.466;2022-08-01T00:32:41;5.93;;;5.20;;
9420;SDS011;4749;51.398;5.466;2022-08-01T00:35:09;8.82;;;5.47;;
9420;SDS011;4749;51.398;5.466;2022-08-01T00:37:36;6.80;;;5.55;;
9420;SDS011;4749;51.398;5.466;2022-08-01T00:40:03;9.02;;;5.88;;
9420;SDS011;4749;51.398;5.466;2022-08-01T00:42:32;6.93;;;6.00;;
9420;SDS011;4749;51.398;5.466;2022-08-01T00:44:59;9.50;;;6.40;;
9420;SDS011;4749;51.398;5.466;2022-08-01T00:47:26;10.07;;;6.45;;
9420;SDS011;4749;51.398;5.466;2022-08-01T00:49:53;9.15;;;6.63;;
9420;SDS011;4749;51.398;5.466;2022-08-01T00:52:20;7.57;;;6.45;;
9420;SDS011;4749;51.398;5.466;2022-08-01T00:54:47;10.55;;;7.38;;
9420;SDS011;4749;51.398;5.466;2022-08-01T00:57:14;10.07;;;7.55;;
9420;SDS011;4749;51.398;5.466;2022-08-01T01:00:02;8.52;;;6.95;;
9420;SDS011;4749;51.398;5.466;2022-08-01T01:02:32;10.52;;;7.75;;
9420;SDS011;4749;51.398;5.466;2022-08-01T01:05:01;10.18;;;7.43;;
9420;SDS011;4749;51.398;5.466;2022-08-01T01:07:36;14.55;;;7.60;;
9420;SDS011;4749;51.398;5.466;2022-08-01T01:10:16;9.25;;;7.70;;
9420;SDS011;4749;51.398;5.466;2022-08-01T01:13:01;11.38;;;7.03;;
9420;SDS011;4749;51.398;5.466;2022-08-01T01:16:15;10.23;;;8.38;;
9420;SDS011;4749;51.398;5.466;2022-08-01T01:18:46;13.02;;;9.10;;
9420;SDS011;4749;51.398;5.466;2022-08-01T01:30:05;11.27;;;8.57;;
9420;SDS011;4749;51.398;5.466;2022-08-01T01:32:35;13.52;;;9.48;;
9420;SDS011;4749;51.398;5.466;2022-08-01T01:35:23;12.80;;;8.85;;
9420;SDS011;4749;51.398;5.466;2022-08-01T01:37:56;14.13;;;9.15;;
9420;SDS011;4749;51.398;5.466;2022-08-01T01:40:40;15.00;;;9.65;;
9420;SDS011;4749;51.398;5.466;2022-08-01T01:43:10;16.88;;;9.85;;
9420;SDS011;4749;51.398;5.466;2022-08-01T01:45:39;16.20;;;10.02;;
9420;SDS011;4749;51.398;5.466;2022-08-01T01:48:09;13.48;;;9.48;;
9420;SDS011;4749;51.398;5.466;2022-08-01T01:50:39;12.88;;;9.85;;
9420;SDS011;4749;51.398;5.466;2022-08-01T01:53:08;13.95;;;10.20;;
9420;SDS011;4749;51.398;5.466;2022-08-01T01:55:41;15.18;;;10.55;;
9420;SDS011;4749;51.398;5.466;2022-08-01T01:58:15;13.55;;;10.75;;
9420;SDS011;4749;51.398;5.466;2022-08-01T02:00:44;16.77;;;11.13;;
9420;SDS011;4749;51.398;5.466;2022-08-01T02:03:16;17.08;;;10.70;;
9420;SDS011;4749;51.398;5.466;2022-08-01T02:05:46;17.70;;;11.00;;
9420;SDS011;4749;51.398;5.466;2022-08-01T02:08:16;14.10;;;10.85;;
9420;SDS011;4749;51.398;5.466;2022-08-01T02:10:45;15.20;;;11.82;;
9420;SDS011;4749;51.398;5.466;2022-08-01T02:13:33;14.75;;;11.00;;
9420;SDS011;4749;51.398;5.466;2022-08-01T02:16:03;16.38;;;11.77;;
9420;SDS011;4749;51.398;5.466;2022-08-01T02:18:31;20.55;;;11.38;;
9420;SDS011;4749;51.398;5.466;2022-08-01T02:20:59;16.15;;;11.82;;
9420;SDS011;4749;51.398;5.466;2022-08-01T02:23:32;20.85;;;12.60;;
9420;SDS011;4749;51.398;5.466;2022-08-01T02:26:03;17.75;;;12.13;;
9420;SDS011;4749;51.398;5.466;2022-08-01T02:29:14;18.27;;;12.68;;
9420;SDS011;4749;51.398;5.466;2022-08-01T02:31:37;17.40;;;11.93;;
9420;SDS011;4749;51.398;5.466;2022-08-01T02:34:09;18.95;;;12.52;;
9420;SDS011;4749;51.398;5.466;2022-08-01T02:36:39;17.02;;;12.52;;
9420;SDS011;4749;51.398;5.466;2022-08-01T02:39:08;16.58;;;12.15;;
9420;SDS011;4749;51.398;5.466;2022-08-01T02:41:42;17.50;;;13.23;;
9420;SDS011;4749;51.398;5.466;2022-08-01T02:44:21;18.15;;;12.65;;
9420;SDS011;4749;51.398;5.466;2022-08-01T02:46:56;15.73;;;12.73;;
9420;SDS011;4749;51.398;5.466;2022-08-01T02:49:29;17.80;;;12.93;;
9420;SDS011;4749;51.398;5.466;2022-08-01T02:52:00;21.23;;;13.27;;
9420;SDS011;4749;51.398;5.466;2022-08-01T02:54:38;18.35;;;12.70;;
9420;SDS011;4749;51.398;5.466;2022-08-01T02:57:07;18.15;;;13.43;;
9420;SDS011;4749;51.398;5.466;2022-08-01T02:59:39;16.95;;;13.40;;
9420;SDS011;4749;51.398;5.466;2022-08-01T03:02:10;16.70;;;13.20;;
9420;SDS011;4749;51.398;5.466;2022-08-01T03:04:38;20.67;;;13.73;;
9420;SDS011;4749;51.398;5.466;2022-08-01T03:07:08;16.60;;;12.55;;
9420;SDS011;4749;51.398;5.466;2022-08-01T03:09:37;17.35;;;12.55;;
9420;SDS011;4749;51.398;5.466;2022-08-01T03:12:11;17.50;;;13.68;;
9420;SDS011;4749;51.398;5.466;2022-08-01T03:14:45;19.70;;;13.60;;
9420;SDS011;4749;51.398;5.466;2022-08-01T03:17:15;17.80;;;13.75;;
9420;SDS011;4749;51.398;5.466;2022-08-01T03:19:46;19.45;;;14.20;;
9420;SDS011;4749;51.398;5.466;2022-08-01T03:22:16;20.27;;;13.90;;
9420;SDS011;4749;51.398;5.466;2022-08-01T03:24:45;20.33;;;14.32;;
9420;SDS011;4749;51.398;5.466;2022-08-01T03:27:17;19.40;;;14.80;;
9420;SDS011;4749;51.398;5.466;2022-08-01T03:29:48;19.73;;;13.82;;
9420;SDS011;4749;51.398;5.466;2022-08-01T03:32:17;20.52;;;14.13;;
9420;SDS011;4749;51.398;5.466;2022-08-01T03:34:46;19.75;;;14.40;;
9420;SDS011;4749;51.398;5.466;2022-08-01T03:37:20;20.92;;;14.35;;
9420;SDS011;4749;51.398;5.466;2022-08-01T03:39:55;19.17;;;13.93;;
9420;SDS011;4749;51.398;5.466;2022-08-01T03:42:31;16.80;;;12.43;;
9420;SDS011;4749;51.398;5.466;2022-08-01T03:45:21;21.35;;;13.07;;
9420;SDS011;4749;51.398;5.466;2022-08-01T03:47:52;19.83;;;14.15;;
9420;SDS011;4749;51.398;5.466;2022-08-01T03:50:25;20.90;;;13.57;;
9420;SDS011;4749;51.398;5.466;2022-08-01T03:52:56;20.67;;;13.20;;
9420;SDS011;4749;51.398;5.466;2022-08-01T03:55:25;21.17;;;13.02;;
9420;SDS011;4749;51.398;5.466;2022-08-01T03:57:53;17.45;;;13.10;;
9420;SDS011;4749;51.398;5.466;2022-08-01T04:00:21;17.20;;;11.93;;
9420;SDS011;4749;51.398;5.466;2022-08-01T04:02:51;18.33;;;13.02;;
9420;SDS011;4749;51.398;5.466;2022-08-01T04:05:19;16.58;;;11.35;;
9420;SDS011;4749;51.398;5.466;2022-08-01T04:07:47;13.73;;;10.98;;
9420;SDS011;4749;51.398;5.466;2022-08-01T04:10:22;15.30;;;10.75;;
9420;SDS011;4749;51.398;5.466;2022-08-01T04:12:50;17.20;;;11.05;;
9420;SDS011;4749;51.398;5.466;2022-08-01T04:15:18;15.27;;;10.57;;
9420;SDS011;4749;51.398;5.466;2022-08-01T04:17:46;16.17;;;11.75;;
9420;SDS011;4749;51.398;5.466;2022-08-01T04:20:14;16.45;;;11.70;;
9420;SDS011;4749;51.398;5.466;2022-08-01T04:22:41;15.93;;;11.25;;
9420;SDS011;4749;51.398;5.466;2022-08-01T04:25:11;16.83;;;11.48;;
9420;SDS011;4749;51.398;5.466;2022-08-01T04:27:48;17.80;;;10.18;;
9420;SDS011;4749;51.398;5.466;2022-08-01T04:30:19;18.30;;;11.48;;
9420;SDS011;4749;51.398;5.466;2022-08-01T04:32:57;16.33;;;12.07;;
9420;SDS011;4749;51.398;5.466;2022-08-01T04:35:27;17.70;;;12.20;;
9420;SDS011;4749;51.398;5.466;2022-08-01T04:38:17;18.73;;;12.98;;
9420;SDS011;4749;51.398;5.466;2022-08-01T04:40:49;16.77;;;11.55;;
9420;SDS011;4749;51.398;5.466;2022-08-01T04:43:18;18.60;;;13.55;;
9420;SDS011;4749;51.398;5.466;2022-08-01T04:45:46;17.95;;;12.98;;
9420;SDS011;4749;51.398;5.466;2022-08-01T04:48:15;20.42;;;13.25;;
9420;SDS011;4749;51.398;5.466;2022-08-01T04:50:48;20.20;;;13.35;;
9420;SDS011;4749;51.398;5.466;2022-08-01T04:53:16;19.27;;;12.55;;
9420;SDS011;4749;51.398;5.466;2022-08-01T04:55:45;17.80;;;12.93;;
9420;SDS011;4749;51.398;5.466;2022-08-01T04:58:13;18.30;;;12.82;;
9420;SDS011;4749;51.398;5.466;2022-08-01T05:00:44;20.48;;;13.68;;
9420;SDS011;4749;51.398;5.466;2022-08-01T05:03:12;19.58;;;13.00;;
9420;SDS011;4749;51.398;5.466;2022-08-01T05:05:40;19.05;;;13.65;;
9420;SDS011;4749;51.398;5.466;2022-08-01T05:08:07;22.13;;;14.68;;
9420;SDS011;4749;51.398;5.466;2022-08-01T05:10:34;21.48;;;15.52;;
9420;SDS011;4749;51.398;5.466;2022-08-01T05:13:01;19.98;;;14.25;;
9420;SDS011;4749;51.398;5.466;2022-08-01T05:15:28;20.08;;;14.93;;
9420;SDS011;4749;51.398;5.466;2022-08-01T05:17:55;18.63;;;14.55;;
9420;SDS011;4749;51.398;5.466;2022-08-01T05:20:22;23.50;;;14.07;;
9420;SDS011;4749;51.398;5.466;2022-08-01T05:22:50;21.73;;;14.85;;
9420;SDS011;4749;51.398;5.466;2022-08-01T05:25:17;19.98;;;14.50;;
9420;SDS011;4749;51.398;5.466;2022-08-01T05:27:58;21.02;;;14.52;;
9420;SDS011;4749;51.398;5.466;2022-08-01T05:30:26;20.52;;;14.88;;
9420;SDS011;4749;51.398;5.466;2022-08-01T05:32:53;17.90;;;13.43;;
9420;SDS011;4749;51.398;5.466;2022-08-01T05:35:22;19.30;;;13.85;;
9420;SDS011;4749;51.398;5.466;2022-08-01T05:38:09;19.23;;;14.10;;
9420;SDS011;4749;51.398;5.466;2022-08-01T05:40:40;18.33;;;14.27;;
9420;SDS011;4749;51.398;5.466;2022-08-01T05:43:07;19.13;;;13.55;;
9420;SDS011;4749;51.398;5.466;2022-08-01T05:45:34;21.60;;;14.75;;
9420;SDS011;4749;51.398;5.466;2022-08-01T05:48:01;20.55;;;14.52;;
9420;SDS011;4749;51.398;5.466;2022-08-01T05:50:28;18.20;;;13.57;;
9420;SDS011;4749;51.398;5.466;2022-08-01T05:52:55;19.63;;;14.43;;
9420;SDS011;4749;51.398;5.466;2022-08-01T05:55:22;19.73;;;12.98;;
9420;SDS011;4749;51.398;5.466;2022-08-01T05:57:49;16.63;;;12.10;;
9420;SDS011;4749;51.398;5.466;2022-08-01T06:00:16;15.30;;;11.52;;
9420;SDS011;4749;51.398;5.466;2022-08-01T06:02:44;17.17;;;11.60;;
9420;SDS011;4749;51.398;5.466;2022-08-01T06:05:11;15.00;;;12.02;;
9420;SDS011;4749;51.398;5.466;2022-08-01T06:07:39;15.82;;;10.73;;
9420;SDS011;4749;51.398;5.466;2022-08-01T06:10:07;13.02;;;9.48;;
9420;SDS011;4749;51.398;5.466;2022-08-01T06:12:35;11.82;;;9.35;;
9420;SDS011;4749;51.398;5.466;2022-08-01T06:15:03;11.52;;;8.48;;
9420;SDS011;4749;51.398;5.466;2022-08-01T06:17:31;11.02;;;7.85;;
9420;SDS011;4749;51.398;5.466;2022-08-01T06:19:59;9.98;;;7.45;;
9420;SDS011;4749;51.398;5.466;2022-08-01T06:22:26;11.80;;;8.35;;
9420;SDS011;4749;51.398;5.466;2022-08-01T06:24:53;9.50;;;7.68;;
9420;SDS011;4749;51.398;5.466;2022-08-01T06:27:20;11.02;;;7.53;;
9420;SDS011;4749;51.398;5.466;2022-08-01T06:29:48;10.57;;;7.50;;
9420;SDS011;4749;51.398;5.466;2022-08-01T06:32:19;11.13;;;6.53;;
9420;SDS011;4749;51.398;5.466;2022-08-01T06:34:53;8.48;;;5.75;;
9420;SDS011;4749;51.398;5.466;2022-08-01T06:37:21;7.80;;;5.60;;
9420;SDS011;4749;51.398;5.466;2022-08-01T06:39:49;7.35;;;4.95;;
9420;SDS011;4749;51.398;5.466;2022-08-01T06:42:16;7.30;;;5.22;;
9420;SDS011;4749;51.398;5.466;2022-08-01T06:44:44;5.88;;;4.57;;
9420;SDS011;4749;51.398;5.466;2022-08-01T06:47:11;5.53;;;4.07;;
9420;SDS011;4749;51.398;5.466;2022-08-01T06:49:38;6.50;;;4.63;;
9420;SDS011;4749;51.398;5.466;2022-08-01T06:52:06;6.03;;;4.55;;
9420;SDS011;4749;51.398;5.466;2022-08-01T06:54:33;6.35;;;4.20;;
9420;SDS011;4749;51.398;5.466;2022-08-01T06:57:04;8.65;;;4.78;;
9420;SDS011;4749;51.398;5.466;2022-08-01T06:59:31;5.13;;;4.15;;
9420;SDS011;4749;51.398;5.466;2022-08-01T07:01:59;4.57;;;4.13;;
9420;SDS011;4749;51.398;5.466;2022-08-01T07:04:27;5.00;;;4.00;;
9420;SDS011;4749;51.398;5.466;2022-08-01T07:06:54;3.55;;;2.78;;
9420;SDS011;4749;51.398;5.466;2022-08-01T07:09:23;3.03;;;2.38;;
9420;SDS011;4749;51.398;5.466;2022-08-01T07:11:50;2.83;;;2.35;;
9420;SDS011;4749;51.398;5.466;2022-08-01T07:14:18;3.30;;;1.70;;
9420;SDS011;4749;51.398;5.466;2022-08-01T07:16:46;3.60;;;1.70;;
9420;SDS011;4749;51.398;5.466;2022-08-01T07:19:13;1.50;;;1.40;;
9420;SDS011;4749;51.398;5.466;2022-08-01T07:21:40;2.92;;;1.42;;
9420;SDS011;4749;51.398;5.466;2022-08-01T07:24:11;2.15;;;1.63;;
9420;SDS011;4749;51.398;5.466;2022-08-01T07:26:41;2.08;;;1.00;;
9420;SDS011;4749;51.398;5.466;2022-08-01T07:29:23;2.10;;;1.33;;
9420;SDS011;4749;51.398;5.466;2022-08-01T07:31:52;2.40;;;1.25;;
9420;SDS011;4749;51.398;5.466;2022-08-01T07:34:21;2.53;;;1.25;;
9420;SDS011;4749;51.398;5.466;2022-08-01T07:36:50;2.35;;;1.50;;
9420;SDS011;4749;51.398;5.466;2022-08-01T07:39:18;2.38;;;1.30;;
9420;SDS011;4749;51.398;5.466;2022-08-01T07:41:46;4.47;;;1.30;;
9420;SDS011;4749;51.398;5.466;2022-08-01T07:44:33;1.45;;;1.05;;
9420;SDS011;4749;51.398;5.466;2022-08-01T07:47:01;1.77;;;1.30;;
9420;SDS011;4749;51.398;5.466;2022-08-01T07:49:29;1.08;;;0.90;;
9420;SDS011;4749;51.398;5.466;2022-08-01T07:52:01;1.52;;;0.95;;
9420;SDS011;4749;51.398;5.466;2022-08-01T07:54:33;2.78;;;1.10;;
9420;SDS011;4749;51.398;5.466;2022-08-01T07:57:01;1.63;;;0.70;;
9420;SDS011;4749;51.398;5.466;2022-08-01T07:59:29;0.93;;;0.70;;
9420;SDS011;4749;51.398;5.466;2022-08-01T08:01:57;1.00;;;0.90;;
9420;SDS011;4749;51.398;5.466;2022-08-01T08:04:24;2.42;;;1.20;;
9420;SDS011;4749;51.398;5.466;2022-08-01T08:06:53;1.95;;;1.10;;
9420;SDS011;4749;51.398;5.466;2022-08-01T08:09:20;2.20;;;1.20;;
9420;SDS011;4749;51.398;5.466;2022-08-01T08:11:49;1.92;;;1.25;;
9420;SDS011;4749;51.398;5.466;2022-08-01T08:14:16;2.50;;;1.17;;
9420;SDS011;4749;51.398;5.466;2022-08-01T08:16:44;3.25;;;1.02;;
9420;SDS011;4749;51.398;5.466;2022-08-01T08:19:12;1.58;;;1.10;;
9420;SDS011;4749;51.398;5.466;2022-08-01T08:21:40;1.15;;;0.80;;
9420;SDS011;4749;51.398;5.466;2022-08-01T08:24:07;1.40;;;1.00;;
9420;SDS011;4749;51.398;5.466;2022-08-01T08:26:56;2.03;;;1.13;;
9420;SDS011;4749;51.398;5.466;2022-08-01T08:29:26;1.83;;;1.20;;
9420;SDS011;4749;51.398;5.466;2022-08-01T08:31:56;1.60;;;1.35;;
9420;SDS011;4749;51.398;5.466;2022-08-01T08:34:24;1.52;;;1.20;;
9420;SDS011;4749;51.398;5.466;2022-08-01T08:36:52;1.95;;;1.45;;
9420;SDS011;4749;51.398;5.466;2022-08-01T08:39:22;1.92;;;1.50;;
9420;SDS011;4749;51.398;5.466;2022-08-01T08:41:49;1.92;;;1.60;;
9420;SDS011;4749;51.398;5.466;2022-08-01T08:44:16;1.88;;;1.67;;
9420;SDS011;4749;51.398;5.466;2022-08-01T08:46:47;2.47;;;2.10;;
9420;SDS011;4749;51.398;5.466;2022-08-01T08:49:19;4.00;;;2.20;;
9420;SDS011;4749;51.398;5.466;2022-08-01T08:51:50;2.25;;;1.83;;
9420;SDS011;4749;51.398;5.466;2022-08-01T08:54:19;2.33;;;1.73;;
9420;SDS011;4749;51.398;5.466;2022-08-01T08:56:57;2.67;;;1.75;;
9420;SDS011;4749;51.398;5.466;2022-08-01T08:59:28;1.98;;;1.65;;
9420;SDS011;4749;51.398;5.466;2022-08-01T09:01:55;2.47;;;1.83;;
9420;SDS011;4749;51.398;5.466;2022-08-01T09:04:24;1.95;;;1.50;;
9420;SDS011;4749;51.398;5.466;2022-08-01T09:06:53;2.15;;;1.58;;
9420;SDS011;4749;51.398;5.466;2022-08-01T09:09:21;3.10;;;1.60;;
9420;SDS011;4749;51.398;5.466;2022-08-01T09:11:50;1.52;;;1.38;;
9420;SDS011;4749;51.398;5.466;2022-08-01T09:14:32;1.30;;;1.20;;
9420;SDS011;4749;51.398;5.466;2022-08-01T09:17:08;1.40;;;1.13;;
9420;SDS011;4749;51.398;5.466;2022-08-01T09:19:39;1.50;;;1.30;;
9420;SDS011;4749;51.398;5.466;2022-08-01T09:22:12;2.03;;;1.50;;
9420;SDS011;4749;51.398;5.466;2022-08-01T09:28:01;2.97;;;1.70;;
9420;SDS011;4749;51.398;5.466;2022-08-01T09:30:38;1.88;;;1.70;;
9420;SDS011;4749;51.398;5.466;2022-08-01T09:33:06;1.60;;;1.50;;
9420;SDS011;4749;51.398;5.466;2022-08-01T09:35:43;2.30;;;1.98;;
9420;SDS011;4749;51.398;5.466;2022-08-01T09:38:20;2.53;;;1.50;;
9420;SDS011;4749;51.398;5.466;2022-08-01T09:40:51;1.80;;;1.52;;
9420;SDS011;4749;51.398;5.466;2022-08-01T09:43:22;1.40;;;1.30;;
9420;SDS011;4749;51.398;5.466;2022-08-01T09:45:52;1.83;;;1.40;;
9420;SDS011;4749;51.398;5.466;2022-08-01T09:48:23;1.70;;;1.40;;
9420;SDS011;4749;51.398;5.466;2022-08-01T09:50:54;2.35;;;1.50;;
9420;SDS011;4749;51.398;5.466;2022-08-01T09:53:44;3.47;;;1.38;;
9420;SDS011;4749;51.398;5.466;2022-08-01T09:56:18;1.20;;;1.10;;
9420;SDS011;4749;51.398;5.466;2022-08-01T09:58:48;2.17;;;1.27;;
9420;SDS011;4749;51.398;5.466;2022-08-01T10:01:23;2.92;;;1.73;;
9420;SDS011;4749;51.398;5.466;2022-08-01T10:04:04;1.50;;;1.40;;
9420;SDS011;4749;51.398;5.466;2022-08-01T10:06:35;2.58;;;1.50;;
9420;SDS011;4749;51.398;5.466;2022-08-01T10:09:02;2.88;;;1.25;;
9420;SDS011;4749;51.398;5.466;2022-08-01T10:11:30;1.45;;;1.10;;
9420;SDS011;4749;51.398;5.466;2022-08-01T10:14:01;1.00;;;0.90;;
9420;SDS011;4749;51.398;5.466;2022-08-01T10:16:30;1.30;;;1.20;;
9420;SDS011;4749;51.398;5.466;2022-08-01T10:19:05;1.83;;;1.17;;
9420;SDS011;4749;51.398;5.466;2022-08-01T10:21:41;1.30;;;1.20;;
9420;SDS011;4749;51.398;5.466;2022-08-01T10:24:25;1.50;;;1.38;;
9420;SDS011;4749;51.398;5.466;2022-08-01T10:27:02;1.33;;;1.10;;
9420;SDS011;4749;51.398;5.466;2022-08-01T10:29:49;1.10;;;1.00;;
9420;SDS011;4749;51.398;5.466;2022-08-01T10:32:34;2.70;;;1.10;;
9420;SDS011;4749;51.398;5.466;2022-08-01T10:35:05;0.80;;;0.80;;
9420;SDS011;4749;51.398;5.466;2022-08-01T10:37:40;1.33;;;1.10;;
9420;SDS011;4749;51.398;5.466;2022-08-01T10:40:17;1.30;;;1.20;;
9420;SDS011;4749;51.398;5.466;2022-08-01T10:43:02;3.03;;;0.90;;
9420;SDS011;4749;51.398;5.466;2022-08-01T10:45:29;0.70;;;0.70;;
9420;SDS011;4749;51.398;5.466;2022-08-01T10:48:05;0.82;;;0.60;;
9420;SDS011;4749;51.398;5.466;2022-08-01T10:50:47;2.03;;;0.70;;
9420;SDS011;4749;51.398;5.466;2022-08-01T10:53:19;0.93;;;0.82;;
9420;SDS011;4749;51.398;5.466;2022-08-01T10:56:07;0.60;;;0.60;;
9420;SDS011;4749;51.398;5.466;2022-08-01T10:58:42;0.70;;;0.70;;
9420;SDS011;4749;51.398;5.466;2022-08-01T11:01:27;1.13;;;0.95;;
9420;SDS011;4749;51.398;5.466;2022-08-01T11:09:00;1.30;;;0.88;;
9420;SDS011;4749;51.398;5.466;2022-08-01T11:11:57;0.73;;;0.70;;
9420;SDS011;4749;51.398;5.466;2022-08-01T11:14:32;2.17;;;1.00;;
9420;SDS011;4749;51.398;5.466;2022-08-01T11:20:15;1.45;;;0.85;;
9420;SDS011;4749;51.398;5.466;2022-08-01T11:28:30;0.95;;;0.85;;
9420;SDS011;4749;51.398;5.466;2022-08-01T11:38:41;2.83;;;1.00;;
9420;SDS011;4749;51.398;5.466;2022-08-01T11:41:12;1.40;;;0.93;;
9420;SDS011;4749;51.398;5.466;2022-08-01T11:46:54;0.90;;;0.70;;
9420;SDS011;4749;51.398;5.466;2022-08-01T11:52:16;2.60;;;1.17;;
9420;SDS011;4749;51.398;5.466;2022-08-01T11:54:55;1.48;;;1.05;;
9420;SDS011;4749;51.398;5.466;2022-08-01T11:57:36;1.23;;;0.82;;
9420;SDS011;4749;51.398;5.466;2022-08-01T12:02:43;1.17;;;0.80;;
9420;SDS011;4749;51.398;5.466;2022-08-01T12:05:13;1.00;;;0.90;;
9420;SDS011;4749;51.398;5.466;2022-08-01T12:07:44;2.83;;;0.93;;
9420;SDS011;4749;51.398;5.466;2022-08-01T12:10:19;1.75;;;1.20;;
9420;SDS011;4749;51.398;5.466;2022-08-01T12:12:53;0.98;;;0.88;;
9420;SDS011;4749;51.398;5.466;2022-08-01T12:15:29;2.22;;;1.10;;
9420;SDS011;4749;51.398;5.466;2022-08-01T12:18:00;0.85;;;0.73;;
9420;SDS011;4749;51.398;5.466;2022-08-01T12:20:34;1.02;;;0.77;;
9420;SDS011;4749;51.398;5.466;2022-08-01T12:23:19;1.83;;;0.98;;
9420;SDS011;4749;51.398;5.466;2022-08-01T12:25:50;2.22;;;0.90;;
9420;SDS011;4749;51.398;5.466;2022-08-01T12:28:18;0.77;;;0.70;;
9420;SDS011;4749;51.398;5.466;2022-08-01T12:30:46;1.08;;;0.80;;
9420;SDS011;4749;51.398;5.466;2022-08-01T12:33:17;5.13;;;1.50;;
9420;SDS011;4749;51.398;5.466;2022-08-01T12:35:46;1.98;;;0.82;;
9420;SDS011;4749;51.398;5.466;2022-08-01T12:38:14;2.67;;;0.90;;
9420;SDS011;4749;51.398;5.466;2022-08-01T12:40:48;1.75;;;0.80;;
9420;SDS011;4749;51.398;5.466;2022-08-01T12:43:21;1.88;;;0.80;;
9420;SDS011;4749;51.398;5.466;2022-08-01T12:45:54;2.15;;;0.75;;
9420;SDS011;4749;51.398;5.466;2022-08-01T12:48:24;1.50;;;0.80;;
9420;SDS011;4749;51.398;5.466;2022-08-01T12:50:54;3.75;;;0.88;;
9420;SDS011;4749;51.398;5.466;2022-08-01T12:53:24;1.48;;;0.80;;
9420;SDS011;4749;51.398;5.466;2022-08-01T12:56:07;1.88;;;0.95;;
9420;SDS011;4749;51.398;5.466;2022-08-01T12:58:38;1.48;;;0.80;;
9420;SDS011;4749;51.398;5.466;2022-08-01T13:01:07;2.75;;;0.90;;
9420;SDS011;4749;51.398;5.466;2022-08-01T13:03:37;3.70;;;1.05;;
9420;SDS011;4749;51.398;5.466;2022-08-01T13:06:13;1.45;;;0.93;;
9420;SDS011;4749;51.398;5.466;2022-08-01T13:08:43;2.83;;;1.15;;
9420;SDS011;4749;51.398;5.466;2022-08-01T13:11:12;1.05;;;0.70;;
9420;SDS011;4749;51.398;5.466;2022-08-01T13:13:44;1.30;;;0.88;;
9420;SDS011;4749;51.398;5.466;2022-08-01T13:16:21;1.15;;;0.77;;
9420;SDS011;4749;51.398;5.466;2022-08-01T13:19:13;1.25;;;0.75;;
9420;SDS011;4749;51.398;5.466;2022-08-01T13:21:52;1.23;;;0.88;;
9420;SDS011;4749;51.398;5.466;2022-08-01T13:24:24;1.40;;;0.77;;
9420;SDS011;4749;51.398;5.466;2022-08-01T13:27:00;1.60;;;0.80;;
9420;SDS011;4749;51.398;5.466;2022-08-01T13:35:05;1.10;;;0.85;;
9420;SDS011;4749;51.398;5.466;2022-08-01T13:37:38;3.10;;;1.10;;
9420;SDS011;4749;51.398;5.466;2022-08-01T13:40:08;2.22;;;1.33;;
9420;SDS011;4749;51.398;5.466;2022-08-01T13:42:38;2.83;;;1.40;;
9420;SDS011;4749;51.398;5.466;2022-08-01T13:45:05;3.47;;;1.30;;
9420;SDS011;4749;51.398;5.466;2022-08-01T13:47:40;3.85;;;1.10;;
9420;SDS011;4749;51.398;5.466;2022-08-01T13:50:30;3.88;;;1.30;;
9420;SDS011;4749;51.398;5.466;2022-08-01T13:52:58;2.75;;;1.10;;
9420;SDS011;4749;51.398;5.466;2022-08-01T13:55:25;1.70;;;0.95;;
9420;SDS011;4749;51.398;5.466;2022-08-01T13:57:59;1.58;;;1.05;;
9420;SDS011;4749;51.398;5.466;2022-08-01T14:00:26;1.77;;;1.15;;
9420;SDS011;4749;51.398;5.466;2022-08-01T14:02:53;2.08;;;1.10;;
9420;SDS011;4749;51.398;5.466;2022-08-01T14:05:20;4.45;;;1.20;;
9420;SDS011;4749;51.398;5.466;2022-08-01T14:07:47;3.42;;;1.33;;
9420;SDS011;4749;51.398;5.466;2022-08-01T14:10:21;3.83;;;1.38;;
9420;SDS011;4749;51.398;5.466;2022-08-01T14:12:49;3.90;;;1.30;;
9420;SDS011;4749;51.398;5.466;2022-08-01T14:15:17;2.70;;;1.40;;
9420;SDS011;4749;51.398;5.466;2022-08-01T14:18:05;2.33;;;1.27;;
9420;SDS011;4749;51.398;5.466;2022-08-01T14:20:35;2.08;;;1.35;;
9420;SDS011;4749;51.398;5.466;2022-08-01T14:23:04;2.65;;;1.45;;
9420;SDS011;4749;51.398;5.466;2022-08-01T14:25:37;2.80;;;1.45;;
9420;SDS011;4749;51.398;5.466;2022-08-01T14:28:26;3.10;;;1.50;;
9420;SDS011;4749;51.398;5.466;2022-08-01T14:30:55;1.88;;;1.00;;
9420;SDS011;4749;51.398;5.466;2022-08-01T14:33:24;1.45;;;1.20;;
9420;SDS011;4749;51.398;5.466;2022-08-01T14:35:55;2.38;;;1.20;;
9420;SDS011;4749;51.398;5.466;2022-08-01T14:38:42;3.95;;;1.70;;
9420;SDS011;4749;51.398;5.466;2022-08-01T14:41:12;2.63;;;1.30;;
9420;SDS011;4749;51.398;5.466;2022-08-01T14:43:40;4.07;;;1.20;;
9420;SDS011;4749;51.398;5.466;2022-08-01T14:46:08;4.00;;;1.20;;
9420;SDS011;4749;51.398;5.466;2022-08-01T14:48:36;2.83;;;1.20;;
9420;SDS011;4749;51.398;5.466;2022-08-01T14:51:03;1.92;;;1.10;;
9420;SDS011;4749;51.398;5.466;2022-08-01T14:53:33;11.20;;;1.85;;
9420;SDS011;4749;51.398;5.466;2022-08-01T14:56:04;4.15;;;1.27;;
9420;SDS011;4749;51.398;5.466;2022-08-01T14:58:32;2.88;;;1.17;;
9420;SDS011;4749;51.398;5.466;2022-08-01T15:01:00;5.00;;;1.15;;
9420;SDS011;4749;51.398;5.466;2022-08-01T15:03:28;2.00;;;0.98;;
9420;SDS011;4749;51.398;5.466;2022-08-01T15:05:55;4.43;;;1.17;;
9420;SDS011;4749;51.398;5.466;2022-08-01T15:08:22;2.40;;;1.00;;
9420;SDS011;4749;51.398;5.466;2022-08-01T15:10:49;2.28;;;1.13;;
9420;SDS011;4749;51.398;5.466;2022-08-01T15:13:16;2.78;;;0.98;;
9420;SDS011;4749;51.398;5.466;2022-08-01T15:15:43;2.10;;;0.90;;
9420;SDS011;4749;51.398;5.466;2022-08-01T15:18:11;3.85;;;1.42;;
9420;SDS011;4749;51.398;5.466;2022-08-01T15:20:38;3.85;;;1.10;;
9420;SDS011;4749;51.398;5.466;2022-08-01T15:23:05;3.65;;;1.20;;
9420;SDS011;4749;51.398;5.466;2022-08-01T15:25:32;3.20;;;1.25;;
9420;SDS011;4749;51.398;5.466;2022-08-01T15:28:07;3.30;;;1.20;;
9420;SDS011;4749;51.398;5.466;2022-08-01T15:30:36;3.30;;;1.10;;
9420;SDS011;4749;51.398;5.466;2022-08-01T15:33:03;1.80;;;1.02;;
9420;SDS011;4749;51.398;5.466;2022-08-01T15:35:31;3.47;;;1.23;;
9420;SDS011;4749;51.398;5.466;2022-08-01T15:38:15;3.97;;;1.27;;
9420;SDS011;4749;51.398;5.466;2022-08-01T15:40:43;3.67;;;0.90;;
9420;SDS011;4749;51.398;5.466;2022-08-01T15:43:10;3.75;;;1.13;;
9420;SDS011;4749;51.398;5.466;2022-08-01T15:45:41;1.63;;;0.95;;
9420;SDS011;4749;51.398;5.466;2022-08-01T15:48:14;3.55;;;1.00;;
9420;SDS011;4749;51.398;5.466;2022-08-01T15:50:43;3.20;;;0.90;;
9420;SDS011;4749;51.398;5.466;2022-08-01T15:53:10;2.72;;;0.95;;
9420;SDS011;4749;51.398;5.466;2022-08-01T15:55:38;5.45;;;1.70;;
9420;SDS011;4749;51.398;5.466;2022-08-01T15:58:05;5.07;;;0.90;;
9420;SDS011;4749;51.398;5.466;2022-08-01T16:00:34;4.25;;;1.63;;
9420;SDS011;4749;51.398;5.466;2022-08-01T16:03:05;2.85;;;1.40;;
9420;SDS011;4749;51.398;5.466;2022-08-01T16:05:33;5.30;;;1.83;;
9420;SDS011;4749;51.398;5.466;2022-08-01T16:08:09;3.25;;;1.33;;
9420;SDS011;4749;51.398;5.466;2022-08-01T16:10:38;4.70;;;1.15;;
9420;SDS011;4749;51.398;5.466;2022-08-01T16:13:09;3.25;;;0.80;;
9420;SDS011;4749;51.398;5.466;2022-08-01T16:15:36;3.80;;;1.23;;
9420;SDS011;4749;51.398;5.466;2022-08-01T16:18:09;3.30;;;1.10;;
9420;SDS011;4749;51.398;5.466;2022-08-01T16:20:43;4.70;;;1.00;;